Time;durP1;ratioP1;P1;durP2;ratioP2;P2;SDS_P1;SDS_P2;PMS_P1;PMS_P2;Temp;Humidity;BMP_temperature;BMP_pressure;BME280_temperature;BME280_humidity;BME280_pressure;Samples;Min_cycle;Max_cycle;Signal;HPM_P1;HPM_P2
2021/08/30 00:01:01;;;;;;;7.03;5.28;;;;;;;21.77;55.71;101429.75;4987930;28;20126;-72
2021/08/30 00:03:28;;;;;;;8.50;5.57;;;;;;;21.77;55.53;101443.56;4987177;28;20066;-72
2021/08/30 00:05:55;;;;;;;8.07;6.00;;;;;;;21.77;55.63;101433.38;4991919;28;20740;-72
2021/08/30 00:08:21;;;;;;;9.57;6.60;;;;;;;21.78;55.22;101434.25;4997418;28;20054;-72
2021/08/30 00:10:49;;;;;;;7.90;5.95;;;;;;;21.77;55.52;101441.66;4973798;28;20046;-72
2021/08/30 00:13:16;;;;;;;7.97;5.63;;;;;;;21.78;55.05;101442.53;4989878;28;20117;-72
2021/08/30 00:15:42;;;;;;;7.88;6.05;;;;;;;21.77;55.42;101429.75;4989455;28;20054;-73
2021/08/30 00:18:09;;;;;;;8.68;6.03;;;;;;;21.77;55.38;101438.03;4981990;28;20046;-72
2021/08/30 00:20:35;;;;;;;8.25;5.72;;;;;;;21.78;55.62;101445.31;4963007;28;20082;-72
2021/08/30 00:23:02;;;;;;;9.15;6.45;;;;;;;21.77;55.06;101446.31;4986554;28;20121;-72
2021/08/30 00:25:31;;;;;;;8.75;6.13;;;;;;;21.76;55.04;101441.81;4987144;28;20156;-73
2021/08/30 00:27:57;;;;;;;7.95;5.75;;;;;;;21.76;55.38;101433.53;4984456;28;20121;-72
2021/08/30 00:30:24;;;;;;;8.52;5.78;;;;;;;21.74;55.10;101432.84;4969838;28;20504;-73
2021/08/30 00:32:50;;;;;;;9.75;6.20;;;;;;;21.74;55.40;101430.94;4978345;28;20054;-73
2021/08/30 00:35:17;;;;;;;8.82;5.75;;;;;;;21.75;55.43;101440.09;4994180;28;20042;-72
2021/08/30 00:37:45;;;;;;;8.80;6.03;;;;;;;21.73;55.44;101440.28;4990179;28;20050;-72
2021/08/30 00:40:13;;;;;;;8.15;6.25;;;;;;;21.75;54.99;101442.84;4985853;28;20070;-72
2021/08/30 00:42:40;;;;;;;9.13;5.85;;;;;;;21.74;55.15;101438.38;4999068;28;20120;-72
2021/08/30 00:45:08;;;;;;;9.07;6.03;;;;;;;21.76;55.50;101439.06;4988283;28;20125;-73
2021/08/30 00:47:37;;;;;;;8.00;5.68;;;;;;;21.73;55.54;101443.03;4987850;28;20121;-73
2021/08/30 00:50:05;;;;;;;9.48;6.32;;;;;;;21.73;54.83;101443.03;4971183;28;20088;-72
2021/08/30 00:52:32;;;;;;;8.85;6.20;;;;;;;21.71;55.41;101439.56;4998892;28;20049;-72
2021/08/30 00:54:59;;;;;;;7.88;5.72;;;;;;;21.72;55.46;101445.94;4997763;28;20130;-73
2021/08/30 00:57:26;;;;;;;10.30;6.07;;;;;;;21.72;55.48;101452.34;4996796;28;20104;-72
2021/08/30 00:59:52;;;;;;;9.38;6.18;;;;;;;21.71;55.33;101447.84;4981367;28;20057;-72
2021/08/30 01:02:19;;;;;;;9.27;6.53;;;;;;;21.71;55.54;101444.22;4986434;28;20134;-72
2021/08/30 01:04:46;;;;;;;8.50;5.95;;;;;;;21.70;55.11;101445.22;4993838;28;20050;-72
2021/08/30 01:07:26;;;;;;;9.43;6.60;;;;;;;21.70;55.15;101448.00;4985923;28;20074;-72
2021/08/30 01:10:01;;;;;;;10.70;6.45;;;;;;;21.71;55.53;101439.56;4981068;28;20074;-72
2021/08/30 01:12:28;;;;;;;9.98;6.63;;;;;;;21.68;55.17;101442.63;4996563;28;20042;-72
2021/08/30 01:15:12;;;;;;;9.45;6.43;;;;;;;21.70;55.36;101437.81;4993308;28;20133;-72
2021/08/30 01:17:40;;;;;;;9.25;6.18;;;;;;;21.67;55.54;101443.66;4996346;28;20073;-72
2021/08/30 01:20:32;;;;;;;9.40;6.65;;;;;;;21.69;55.73;101443.50;4993408;28;20772;-72
2021/08/30 01:23:00;;;;;;;9.17;6.17;;;;;;;21.64;55.15;101442.09;4990796;28;20050;-73
2021/08/30 01:25:30;;;;;;;9.82;6.53;;;;;;;21.69;55.17;101436.06;4973129;28;20301;-72
2021/08/30 01:27:57;;;;;;;8.80;5.93;;;;;;;21.67;55.51;101440.88;4990488;28;20539;-72
2021/08/30 01:30:25;;;;;;;8.95;6.00;;;;;;;21.68;55.26;101436.22;4971882;28;20050;-72
2021/08/30 01:32:54;;;;;;;9.07;6.20;;;;;;;21.67;55.03;101435.34;4986391;28;20593;-73
2021/08/30 01:35:24;;;;;;;9.43;6.05;;;;;;;21.69;55.04;101440.72;4992461;28;20129;-72
2021/08/30 01:37:54;;;;;;;8.73;6.35;;;;;;;21.69;55.18;101447.13;4984486;28;20054;-72
2021/08/30 01:40:24;;;;;;;9.32;6.43;;;;;;;21.68;55.41;101441.75;4976464;28;20054;-72
2021/08/30 01:42:53;;;;;;;10.18;6.30;;;;;;;21.68;55.35;101450.91;4992794;28;20129;-72
2021/08/30 01:45:23;;;;;;;9.75;6.88;;;;;;;21.67;55.12;101454.69;4994664;28;20052;-72
2021/08/30 01:47:51;;;;;;;9.23;6.60;;;;;;;21.67;55.49;101445.53;4974634;28;20821;-72
2021/08/30 01:50:20;;;;;;;10.25;6.30;;;;;;;21.66;55.07;101449.38;4987226;28;20054;-72
2021/08/30 01:52:49;;;;;;;9.68;6.45;;;;;;;21.65;55.46;101448.50;4997844;28;20058;-72
2021/08/30 02:00:50;;;;;;;9.85;6.43;;;;;;;21.66;55.31;101452.13;4986769;28;20050;-72
2021/08/30 02:03:23;;;;;;;8.88;6.07;;;;;;;21.60;55.18;101453.63;4994286;28;20037;-72
2021/08/30 02:05:53;;;;;;;;;;;;;;;21.33;56.18;101451.78;5005113;28;20049;-72
2021/08/30 02:08:22;;;;;;;7.65;5.43;;;;;;;21.56;55.27;101454.97;4985474;28;19933;-72
2021/08/30 02:10:52;;;;;;;8.68;6.63;;;;;;;21.59;55.54;101460.16;4994367;28;20133;-72
2021/08/30 02:13:19;;;;;;;10.38;6.43;;;;;;;21.58;55.42;101455.66;4978649;28;20038;-73
2021/08/30 02:15:47;;;;;;;9.88;7.10;;;;;;;21.58;55.29;101458.41;4989863;28;20125;-72
2021/08/30 02:18:21;;;;;;;10.55;6.45;;;;;;;21.60;55.12;101464.66;4970860;28;20046;-72
2021/08/30 02:20:55;;;;;;;10.32;7.05;;;;;;;21.58;55.24;101461.19;4964679;28;20533;-72
2021/08/30 02:23:29;;;;;;;9.95;6.90;;;;;;;21.56;55.52;101461.38;4986135;28;20129;-72
2021/08/30 02:26:00;;;;;;;11.27;7.43;;;;;;;21.56;55.34;101468.78;4964327;28;20050;-72
2021/08/30 02:28:26;;;;;;;10.00;7.03;;;;;;;21.53;55.55;101467.19;4996965;28;20046;-72
2021/08/30 02:30:54;;;;;;;11.45;7.45;;;;;;;21.54;55.08;101463.41;4985026;28;20415;-72
2021/08/30 02:33:23;;;;;;;10.20;7.25;;;;;;;21.55;55.40;101465.16;4982626;28;20054;-72
2021/08/30 02:35:50;;;;;;;9.98;7.32;;;;;;;21.53;55.16;101458.91;4986651;28;20052;-72
2021/08/30 02:38:16;;;;;;;11.88;7.70;;;;;;;21.53;55.27;101464.44;4989553;28;20135;-73
2021/08/30 02:40:43;;;;;;;9.32;7.30;;;;;;;21.52;55.16;101459.94;4987150;28;20046;-72
2021/08/30 02:43:11;;;;;;;12.55;8.77;;;;;;;21.53;55.49;101466.34;4987230;28;20141;-72
2021/08/30 02:45:38;;;;;;;11.38;7.53;;;;;;;21.52;55.34;101461.81;4978297;28;20137;-72
2021/08/30 02:48:06;;;;;;;10.63;7.68;;;;;;;21.50;55.68;101461.97;4980433;28;20101;-72
2021/08/30 02:50:33;;;;;;;10.98;7.93;;;;;;;21.51;55.56;101454.56;4994340;28;20145;-72
2021/08/30 02:53:00;;;;;;;13.05;8.18;;;;;;;21.51;55.29;101458.19;4993567;28;20046;-72
2021/08/30 02:55:27;;;;;;;11.55;8.38;;;;;;;21.51;55.25;101463.72;5003607;28;20132;-73
2021/08/30 02:57:56;;;;;;;10.52;7.72;;;;;;;21.52;55.67;101462.69;4967818;28;20150;-72
2021/08/30 03:00:22;;;;;;;12.25;7.93;;;;;;;21.51;55.35;101455.44;4995921;28;20052;-72
2021/08/30 03:02:49;;;;;;;12.65;8.23;;;;;;;21.52;55.35;101454.41;4988678;28;20153;-72
2021/08/30 03:05:17;;;;;;;12.77;8.43;;;;;;;21.52;55.55;101459.94;4989694;28;20129;-72
2021/08/30 03:07:46;;;;;;;12.05;8.40;;;;;;;21.53;55.35;101460.81;4987683;28;20750;-73
2021/08/30 03:10:12;;;;;;;11.38;8.25;;;;;;;21.52;55.72;101459.94;4984298;28;20626;-72
2021/08/30 03:12:41;;;;;;;13.10;8.93;;;;;;;21.55;55.51;101458.75;4973170;28;20125;-72
2021/08/30 03:15:12;;;;;;;11.75;8.02;;;;;;;21.55;55.46;101458.75;4986515;28;20043;-72
2021/08/30 03:17:43;;;;;;;12.27;8.38;;;;;;;21.55;55.78;101454.09;4983379;28;20077;-73
2021/08/30 03:20:23;;;;;;;11.98;8.70;;;;;;;21.54;55.19;101448.72;4970852;28;20128;-72
2021/08/30 03:22:51;;;;;;;11.90;8.52;;;;;;;21.52;55.56;101450.78;4991140;28;20052;-72
2021/08/30 03:25:22;;;;;;;11.30;8.30;;;;;;;21.53;55.12;101456.16;4992342;28;20054;-72
2021/08/30 03:27:50;;;;;;;11.80;8.05;;;;;;;21.53;55.06;101456.16;4993028;28;20042;-72
2021/08/30 03:30:17;;;;;;;11.27;7.70;;;;;;;21.52;55.62;101451.66;4989011;28;20132;-72
2021/08/30 03:32:45;;;;;;;12.93;8.13;;;;;;;21.53;55.42;101450.63;4989563;28;20058;-72
2021/08/30 03:35:14;;;;;;;12.57;8.02;;;;;;;21.53;55.27;101452.53;4991542;28;20569;-72
2021/08/30 03:37:43;;;;;;;11.93;7.85;;;;;;;21.54;55.26;101454.25;4982554;28;20043;-72
2021/08/30 03:40:11;;;;;;;11.90;8.73;;;;;;;21.52;55.29;101451.66;4980968;28;20133;-72
2021/08/30 03:42:39;;;;;;;11.27;8.38;;;;;;;21.51;54.93;101449.03;4998607;28;20120;-72
2021/08/30 03:45:07;;;;;;;12.38;8.65;;;;;;;21.51;54.91;101449.91;4985942;28;20050;-72
2021/08/30 03:47:35;;;;;;;11.05;8.13;;;;;;;21.50;54.84;101452.81;4982792;28;20137;-72
2021/08/30 03:50:04;;;;;;;12.68;8.30;;;;;;;21.49;55.13;101452.00;4990911;28;20069;-72
2021/08/30 03:52:32;;;;;;;11.20;8.25;;;;;;;21.48;54.93;101453.00;4984532;28;20074;-72
2021/08/30 03:54:59;;;;;;;11.98;9.02;;;;;;;21.45;55.07;101456.06;4976762;28;20132;-72
2021/08/30 03:57:26;;;;;;;12.95;9.07;;;;;;;21.45;54.84;101464.38;4971798;28;20122;-72
2021/08/30 03:59:55;;;;;;;12.27;9.05;;;;;;;21.45;55.27;101457.97;4996806;28;20046;-72
2021/08/30 04:02:24;;;;;;;12.05;8.52;;;;;;;21.43;55.39;101455.34;4986988;28;20129;-72
2021/08/30 04:04:51;;;;;;;10.55;8.35;;;;;;;21.40;55.34;101447.41;4992525;28;20395;-72
2021/08/30 04:07:19;;;;;;;11.80;7.82;;;;;;;21.41;55.42;101449.16;4985309;28;20173;-72
2021/08/30 04:09:49;;;;;;;11.90;8.65;;;;;;;21.39;55.17;101451.19;4969078;28;20142;-72
2021/08/30 04:12:17;;;;;;;12.18;8.93;;;;;;;21.40;55.34;101458.47;4986630;28;20130;-72
2021/08/30 04:14:45;;;;;;;13.30;8.65;;;;;;;21.39;54.97;101461.38;4999245;28;20590;-72
2021/08/30 04:17:12;;;;;;;11.75;8.48;;;;;;;21.38;55.01;101460.50;4990382;28;20049;-72
2021/08/30 04:19:38;;;;;;;12.50;8.07;;;;;;;21.36;55.62;101459.78;4980211;28;20539;-72
2021/08/30 04:22:05;;;;;;;10.80;8.00;;;;;;;21.36;55.39;101467.19;4994725;28;20083;-72
2021/08/30 04:24:32;;;;;;;12.35;8.30;;;;;;;21.34;54.97;101464.59;4979919;28;20061;-72
2021/08/30 04:26:58;;;;;;;12.20;7.45;;;;;;;21.34;55.12;101467.34;4980120;28;20046;-72
2021/08/30 04:29:27;;;;;;;9.82;7.55;;;;;;;21.32;55.08;101461.16;4976474;28;20046;-72
2021/08/30 04:31:54;;;;;;;12.00;8.18;;;;;;;21.33;55.15;101464.78;4990794;28;20042;-72
2021/08/30 04:34:22;;;;;;;12.57;8.63;;;;;;;21.31;55.64;101462.16;4994120;28;20140;-72
2021/08/30 04:36:50;;;;;;;11.43;8.15;;;;;;;21.32;54.97;101465.78;4986613;28;20052;-72
2021/08/30 04:39:17;;;;;;;11.25;8.10;;;;;;;21.33;55.22;101475.81;4996241;28;20432;-72
2021/08/30 04:41:45;;;;;;;10.95;8.07;;;;;;;21.33;55.74;101475.81;4992547;28;20058;-72
2021/08/30 04:44:12;;;;;;;10.50;8.23;;;;;;;21.33;55.43;101476.66;4991140;28;20137;-72
2021/08/30 04:46:39;;;;;;;11.45;8.30;;;;;;;21.34;55.42;101477.53;4969197;28;20053;-71
2021/08/30 04:49:05;;;;;;;12.80;9.35;;;;;;;21.34;55.70;101472.00;4982636;28;20046;-71
2021/08/30 04:51:32;;;;;;;12.82;8.95;;;;;;;21.34;55.26;101483.94;4981788;28;20070;-72
2021/08/30 04:53:58;;;;;;;11.70;8.80;;;;;;;21.35;55.40;101482.03;4969470;28;20405;-72
2021/08/30 04:56:25;;;;;;;12.70;9.05;;;;;;;21.35;55.07;101482.91;4989820;28;20046;-72
2021/08/30 04:58:51;;;;;;;11.07;8.43;;;;;;;21.35;55.28;101487.56;4991925;28;20061;-72
2021/08/30 05:01:18;;;;;;;11.48;8.40;;;;;;;21.35;55.54;101484.78;4972939;28;20064;-72
2021/08/30 05:03:45;;;;;;;11.63;8.07;;;;;;;21.35;55.77;101488.44;4988902;28;20046;-72
2021/08/30 05:06:11;;;;;;;12.10;8.25;;;;;;;21.36;55.15;101490.16;4981831;28;20129;-73
2021/08/30 05:08:38;;;;;;;10.82;8.27;;;;;;;21.36;55.18;101484.66;4982295;28;20774;-73
2021/08/30 05:11:04;;;;;;;11.05;7.40;;;;;;;21.38;55.21;101484.50;4983900;28;20463;-73
2021/08/30 05:13:31;;;;;;;12.80;8.70;;;;;;;21.37;54.98;101489.16;4980738;28;20129;-72
2021/08/30 05:15:57;;;;;;;10.20;7.32;;;;;;;21.38;55.20;101478.97;4971242;28;20619;-72
2021/08/30 05:18:24;;;;;;;11.32;8.40;;;;;;;21.37;55.59;101483.63;4982696;28;20060;-73
2021/08/30 05:20:52;;;;;;;12.77;8.18;;;;;;;21.37;55.18;101486.38;4980282;28;20050;-72
2021/08/30 05:23:19;;;;;;;12.50;8.30;;;;;;;21.38;55.17;101492.78;4979248;28;20046;-72
2021/08/30 05:25:45;;;;;;;11.63;8.63;;;;;;;21.37;55.12;101493.81;4991228;28;20046;-73
2021/08/30 05:28:13;;;;;;;11.18;8.48;;;;;;;21.36;55.28;101489.31;4967504;28;20057;-72
2021/08/30 05:30:40;;;;;;;12.23;8.40;;;;;;;21.34;55.19;101489.44;4966687;28;20099;-73
2021/08/30 05:33:06;;;;;;;9.98;7.75;;;;;;;21.34;55.21;101494.09;4983977;28;20131;-72
2021/08/30 05:35:33;;;;;;;10.85;7.97;;;;;;;21.33;55.52;101496.00;4968134;28;20680;-72
2021/08/30 05:37:59;;;;;;;11.93;8.23;;;;;;;21.33;55.59;101495.16;4983348;28;20464;-72
2021/08/30 05:40:26;;;;;;;11.35;8.63;;;;;;;21.32;55.60;101494.28;4987589;28;20175;-72
2021/08/30 05:42:52;;;;;;;11.38;8.07;;;;;;;21.34;55.27;101499.63;4978724;28;20042;-74
2021/08/30 05:45:19;;;;;;;11.70;8.57;;;;;;;21.32;55.81;101499.81;4976127;28;20069;-72
2021/08/30 05:47:47;;;;;;;11.73;7.75;;;;;;;21.33;55.33;101504.28;4971623;28;20129;-72
2021/08/30 05:50:13;;;;;;;10.82;7.90;;;;;;;21.34;55.33;101497.75;4976598;28;20125;-72
2021/08/30 05:52:40;;;;;;;12.80;8.10;;;;;;;21.35;55.57;101506.91;4988634;28;20141;-72
2021/08/30 05:55:07;;;;;;;12.57;7.57;;;;;;;21.35;55.71;101502.25;4986015;28;20116;-72
2021/08/30 05:57:33;;;;;;;10.90;8.00;;;;;;;21.36;55.81;101503.97;4984775;28;20089;-72
2021/08/30 06:00:00;;;;;;;10.98;8.13;;;;;;;21.38;55.51;101506.59;4984899;28;20676;-72
2021/08/30 06:02:26;;;;;;;13.40;9.10;;;;;;;21.38;55.55;101513.00;5028138;23;20377;-78
2021/08/30 06:04:53;;;;;;;10.55;7.85;;;;;;;21.40;55.42;101510.06;5027188;28;20049;-77
2021/08/30 06:07:20;;;;;;;12.02;8.07;;;;;;;21.41;55.74;101511.81;5033460;28;20107;-78
2021/08/30 06:09:46;;;;;;;11.15;7.95;;;;;;;21.40;55.32;101516.47;5031648;28;20072;-79
2021/08/30 06:12:13;;;;;;;12.00;8.30;;;;;;;21.39;55.58;101511.97;5032540;28;20084;-78
2021/08/30 06:14:40;;;;;;;11.35;7.80;;;;;;;21.41;55.16;101503.53;5023320;28;20045;-78
2021/08/30 06:17:07;;;;;;;11.35;7.88;;;;;;;21.41;55.56;101509.94;5027848;28;20045;-78
2021/08/30 06:19:34;;;;;;;11.52;8.38;;;;;;;21.42;55.13;101511.63;5031488;28;20054;-78
2021/08/30 06:22:01;;;;;;;12.55;8.32;;;;;;;21.41;55.47;101517.34;5033012;28;20045;-77
2021/08/30 06:24:28;;;;;;;11.73;8.13;;;;;;;21.41;55.49;101523.75;5031600;28;20099;-77
2021/08/30 06:26:54;;;;;;;11.50;8.82;;;;;;;21.43;55.75;101521.66;5036508;28;20038;-77
2021/08/30 06:29:21;;;;;;;13.43;8.82;;;;;;;21.43;55.36;101516.13;5029160;28;21064;-77
2021/08/30 06:31:48;;;;;;;13.10;8.90;;;;;;;21.42;55.29;101519.91;5027915;28;20145;-77
2021/08/30 06:34:14;;;;;;;12.00;9.18;;;;;;;21.43;55.30;101513.38;5031463;28;20049;-76
2021/08/30 06:36:41;;;;;;;12.10;8.90;;;;;;;21.43;55.58;101521.66;5028584;28;20124;-78
2021/08/30 06:39:08;;;;;;;13.55;9.65;;;;;;;21.42;55.47;101525.44;5029643;28;20684;-79
2021/08/30 06:41:34;;;;;;;13.63;9.48;;;;;;;21.41;55.51;101520.09;5027702;28;20532;-77
2021/08/30 06:44:01;;;;;;;11.10;8.40;;;;;;;21.40;55.84;101519.25;5020350;28;20078;-77
2021/08/30 06:46:28;;;;;;;12.50;9.02;;;;;;;21.40;55.28;101519.25;5009492;28;20050;-79
2021/08/30 06:48:54;;;;;;;12.27;8.77;;;;;;;21.39;55.32;101524.91;5011187;28;20575;-78
2021/08/30 06:51:21;;;;;;;12.68;8.32;;;;;;;21.38;55.40;101521.28;5003274;28;20042;-77
2021/08/30 06:53:47;;;;;;;13.80;8.93;;;;;;;21.39;55.30;101524.91;5007018;28;20096;-76
2021/08/30 06:56:14;;;;;;;12.73;9.13;;;;;;;21.39;55.54;101517.50;5007111;28;20050;-76
2021/08/30 06:58:41;;;;;;;11.90;8.70;;;;;;;21.40;55.36;101519.25;5007044;28;20050;-75
2021/08/30 07:01:07;;;;;;;11.38;8.35;;;;;;;21.39;55.22;101525.78;5006121;28;20083;-75
2021/08/30 07:03:34;;;;;;;10.88;8.27;;;;;;;21.41;55.59;101525.63;5008447;28;20118;-75
2021/08/30 07:06:01;;;;;;;11.15;7.95;;;;;;;21.41;55.25;101522.88;5023002;28;20050;-74
2021/08/30 07:08:28;;;;;;;10.77;7.75;;;;;;;21.42;55.68;101511.63;5009242;28;20142;-75
2021/08/30 07:10:56;;;;;;;10.90;7.93;;;;;;;21.44;55.67;101520.66;5003560;28;20052;-74
2021/08/30 07:13:22;;;;;;;13.45;9.43;;;;;;;21.45;55.58;101510.47;5009624;28;20148;-75
2021/08/30 07:15:49;;;;;;;11.70;7.82;;;;;;;21.45;55.71;101516.84;5009016;28;20077;-76
2021/08/30 07:18:16;;;;;;;11.23;8.10;;;;;;;21.48;55.48;101511.03;5008049;28;20045;-75
2021/08/30 07:20:43;;;;;;;11.98;8.02;;;;;;;21.50;55.19;101508.94;5015686;28;20137;-75
2021/08/30 07:23:10;;;;;;;11.85;8.13;;;;;;;21.51;55.49;101513.47;5008995;28;20080;-76
2021/08/30 07:25:36;;;;;;;13.38;8.82;;;;;;;21.53;55.58;101513.31;5008456;28;20053;-75
2021/08/30 07:28:04;;;;;;;12.88;8.93;;;;;;;21.54;55.68;101512.28;5008759;28;20050;-77
2021/08/30 07:30:31;;;;;;;12.40;8.43;;;;;;;21.55;55.76;101517.66;5000609;28;20050;-75
2021/08/30 07:32:57;;;;;;;14.82;9.00;;;;;;;21.56;55.74;101508.34;5010187;28;20119;-76
2021/08/30 07:35:24;;;;;;;13.55;9.27;;;;;;;21.58;56.00;101510.94;5010740;28;20111;-75
2021/08/30 07:37:51;;;;;;;12.00;8.93;;;;;;;21.59;55.62;101508.00;5007966;28;20539;-74
2021/08/30 07:40:17;;;;;;;12.30;8.85;;;;;;;21.61;56.06;101510.63;5013864;28;20077;-76
2021/08/30 07:42:49;;;;;;;11.77;8.48;;;;;;;21.62;55.94;101509.59;5012652;28;20050;-75
2021/08/30 07:45:15;;;;;;;11.95;8.70;;;;;;;21.64;55.82;101518.63;5013239;28;20042;-76
2021/08/30 07:47:42;;;;;;;12.77;9.35;;;;;;;21.66;55.62;101513.78;5010795;28;20050;-76
2021/08/30 07:50:10;;;;;;;11.52;8.98;;;;;;;21.69;56.05;101521.75;5022510;28;20104;-76
2021/08/30 07:52:37;;;;;;;12.98;8.98;;;;;;;21.70;55.52;101517.97;5010902;28;20097;-75
2021/08/30 07:55:05;;;;;;;11.23;8.20;;;;;;;21.71;55.52;101524.38;5010830;28;20100;-74
2021/08/30 07:57:32;;;;;;;13.48;9.75;;;;;;;21.71;55.63;101521.59;5017871;28;20116;-76
2021/08/30 07:59:59;;;;;;;15.05;10.00;;;;;;;21.72;55.84;101524.22;5016390;28;20089;-76
2021/08/30 08:02:25;;;;;;;13.07;9.23;;;;;;;21.73;55.90;101523.19;5010855;28;20145;-77
2021/08/30 08:04:52;;;;;;;15.07;9.30;;;;;;;21.76;55.55;101527.50;5012030;28;20064;-76
2021/08/30 08:07:19;;;;;;;12.63;9.10;;;;;;;21.76;55.61;101525.63;5003429;28;20042;-77
2021/08/30 08:09:45;;;;;;;11.48;9.18;;;;;;;21.78;55.49;101529.09;4996066;28;20112;-78
2021/08/30 08:12:12;;;;;;;14.02;9.85;;;;;;;21.80;55.67;101534.47;5004995;28;20070;-77
2021/08/30 08:14:39;;;;;;;14.30;10.50;;;;;;;21.80;55.78;101537.25;5001320;28;20046;-76
2021/08/30 08:17:05;;;;;;;11.65;8.60;;;;;;;21.82;55.68;101530.53;5012686;28;20444;-77
2021/08/30 08:19:33;;;;;;;13.75;9.55;;;;;;;21.85;55.71;101535.72;5012109;28;20046;-77
2021/08/30 08:22:01;;;;;;;13.73;9.95;;;;;;;21.86;55.80;101533.84;5010236;28;20136;-75
2021/08/30 08:24:29;;;;;;;14.05;10.05;;;;;;;21.88;55.69;101538.19;5010679;28;20084;-75
2021/08/30 08:26:56;;;;;;;13.95;10.60;;;;;;;21.89;55.71;101537.16;5012393;28;20560;-76
2021/08/30 08:29:23;;;;;;;11.95;9.18;;;;;;;21.91;55.39;101548.03;5011906;28;20054;-78
2021/08/30 08:31:50;;;;;;;12.35;9.45;;;;;;;21.92;55.61;101544.25;5013642;28;20050;-77
2021/08/30 08:34:16;;;;;;;13.35;9.93;;;;;;;21.95;55.85;101541.16;5014383;28;20042;-77
2021/08/30 08:36:43;;;;;;;12.82;9.32;;;;;;;21.97;55.47;101541.94;5012555;28;20112;-77
2021/08/30 08:39:10;;;;;;;12.73;9.68;;;;;;;21.99;55.75;101542.59;5014193;28;20069;-77
2021/08/30 08:41:40;;;;;;;14.73;10.00;;;;;;;22.00;55.68;101544.34;5014686;28;20057;-78
2021/08/30 08:44:08;;;;;;;14.20;10.20;;;;;;;22.01;55.63;101544.19;5013461;28;20428;-77
2021/08/30 08:46:37;;;;;;;13.75;10.20;;;;;;;22.03;55.66;101532.97;5028155;28;20081;-77
2021/08/30 08:49:06;;;;;;;15.07;10.50;;;;;;;22.06;55.41;101538.19;5027457;28;20425;-77
2021/08/30 08:51:33;;;;;;;12.32;9.18;;;;;;;22.06;55.56;101545.63;5013425;28;20489;-77
2021/08/30 08:54:00;;;;;;;13.45;9.77;;;;;;;22.08;55.09;101546.31;5013762;28;20508;-78
2021/08/30 08:56:27;;;;;;;12.98;9.93;;;;;;;22.10;55.41;101549.78;5013500;28;20526;-77
2021/08/30 08:58:54;;;;;;;13.50;10.60;;;;;;;22.09;55.60;101546.16;5013317;28;20081;-77
2021/08/30 09:01:27;;;;;;;13.32;10.18;;;;;;;22.14;55.39;101545.69;5013221;28;20504;-77
2021/08/30 09:03:55;;;;;;;15.30;10.65;;;;;;;22.13;55.09;101553.13;5027827;28;20053;-76
2021/08/30 09:06:45;;;;;;;14.18;10.98;;;;;;;22.17;55.19;101551.75;5011859;28;20042;-77
2021/08/30 09:09:15;;;;;;;11.82;10.23;;;;;;;22.15;55.38;101548.31;5002232;28;20045;-76
2021/08/30 09:11:58;;;;;;;15.15;10.48;;;;;;;22.19;55.58;101543.31;5003005;28;20498;-77
2021/08/30 09:14:26;;;;;;;13.73;10.75;;;;;;;22.19;55.43;101546.06;5010973;28;20108;-76
2021/08/30 09:17:01;;;;;;;14.05;10.43;;;;;;;22.23;55.47;101553.03;5011419;28;20061;-76
2021/08/30 09:19:28;;;;;;;13.80;10.23;;;;;;;22.23;55.25;101544.72;5009857;28;20124;-76
2021/08/30 09:21:54;;;;;;;14.90;11.05;;;;;;;22.24;55.49;101552.84;5012064;28;20541;-77
2021/08/30 09:24:23;;;;;;;13.18;10.35;;;;;;;22.28;55.05;101551.50;5013541;28;20132;-78
2021/08/30 09:26:56;;;;;;;13.13;9.80;;;;;;;22.31;55.45;101556.72;5010685;28;20049;-76
2021/08/30 09:29:27;;;;;;;;;;;;;;;22.01;55.97;101548.84;5011560;28;20060;-76
2021/08/30 09:32:36;;;;;;;11.23;8.13;;;;;;;22.22;55.40;101554.94;5010285;28;19921;-76
2021/08/30 09:35:04;;;;;;;11.43;8.77;;;;;;;22.29;55.35;101557.91;4965314;28;20051;-75
2021/08/30 09:37:36;;;;;;;12.23;9.13;;;;;;;22.34;54.99;101559.16;4965501;28;20051;-76
2021/08/30 09:40:06;;;;;;;12.68;9.65;;;;;;;22.35;54.92;101554.50;4969631;28;20054;-77
2021/08/30 09:42:33;;;;;;;12.63;9.88;;;;;;;22.34;55.42;101564.69;4970407;28;20046;-78
2021/08/30 09:45:07;;;;;;;13.27;9.82;;;;;;;22.39;55.16;101554.03;4952452;28;20129;-77
2021/08/30 09:47:34;;;;;;;11.82;9.27;;;;;;;22.37;55.52;101552.44;4971792;28;20047;-77
2021/08/30 09:50:00;;;;;;;12.27;9.77;;;;;;;22.40;55.36;101555.72;4971836;28;20129;-77
2021/08/30 09:52:28;;;;;;;12.50;10.25;;;;;;;22.43;55.06;101560.06;4970291;28;20050;-77
2021/08/30 09:54:54;;;;;;;14.20;9.75;;;;;;;22.45;55.45;101548.84;4972481;28;20047;-77
2021/08/30 09:57:23;;;;;;;13.82;10.23;;;;;;;22.48;55.13;101559.59;4955166;28;20113;-77
2021/08/30 09:59:50;;;;;;;12.48;9.55;;;;;;;22.50;55.51;101552.00;4963449;28;20080;-77
2021/08/30 10:02:17;;;;;;;12.30;9.18;;;;;;;22.53;55.04;101547.00;4982484;28;20058;-77
2021/08/30 10:04:44;;;;;;;12.15;9.55;;;;;;;22.56;55.21;101543.06;4936712;29;20053;-78
2021/08/30 10:07:16;;;;;;;13.60;9.60;;;;;;;22.56;54.77;101552.22;4958110;28;20055;-76
2021/08/30 10:09:43;;;;;;;12.77;10.25;;;;;;;22.61;54.93;101546.19;4977565;28;20077;-77
2021/08/30 10:12:10;;;;;;;12.10;9.77;;;;;;;22.62;54.59;101543.25;5011340;28;20050;-77
2021/08/30 10:14:38;;;;;;;12.77;9.73;;;;;;;22.66;54.92;101543.78;5012279;28;20057;-77
2021/08/30 10:17:05;;;;;;;14.23;9.55;;;;;;;22.67;54.64;101546.41;5014592;28;20073;-77
2021/08/30 10:19:34;;;;;;;14.75;10.50;;;;;;;22.69;54.33;101544.34;5010672;28;20049;-79
2021/08/30 10:22:16;;;;;;;13.02;10.23;;;;;;;22.72;53.89;101545.91;5011687;28;20196;-77
2021/08/30 10:24:44;;;;;;;12.75;10.02;;;;;;;22.67;54.32;101546.41;5010488;28;20117;-77
2021/08/30 10:27:12;;;;;;;14.80;10.32;;;;;;;22.70;54.19;101539.66;5000525;28;20564;-77
2021/08/30 10:29:40;;;;;;;12.50;9.95;;;;;;;22.70;53.95;101534.13;5005421;28;20390;-78
2021/08/30 10:32:20;;;;;;;13.27;10.30;;;;;;;22.73;53.56;101539.34;5007463;28;20409;-78
2021/08/30 10:34:52;;;;;;;11.55;8.82;;;;;;;22.73;54.11;101539.34;5009931;28;20057;-79
2021/08/30 10:37:20;;;;;;;11.98;9.18;;;;;;;22.73;54.36;101542.97;5005186;28;20132;-77
2021/08/30 10:39:53;;;;;;;13.18;9.95;;;;;;;22.75;53.85;101548.38;5012849;28;20050;-77
2021/08/30 10:42:21;;;;;;;11.40;8.82;;;;;;;22.72;54.04;101538.47;5009814;28;20493;-78
2021/08/30 10:45:03;;;;;;;12.32;9.65;;;;;;;22.75;54.00;101548.38;5009903;28;20100;-76
2021/08/30 10:47:35;;;;;;;11.68;9.23;;;;;;;22.74;54.17;101547.50;5009575;28;20104;-77
2021/08/30 10:50:04;;;;;;;12.43;9.23;;;;;;;22.75;54.08;101542.84;5016078;28;20538;-77
2021/08/30 10:52:40;;;;;;;12.48;9.32;;;;;;;22.81;53.69;101542.19;5008358;28;20092;-75
2021/08/30 10:55:19;;;;;;;12.45;10.90;;;;;;;22.83;54.08;101542.00;5006339;28;20053;-75
2021/08/30 10:57:52;;;;;;;13.27;10.30;;;;;;;22.84;54.21;101538.22;5009181;28;20473;-75
2021/08/30 11:00:30;;;;;;;14.30;10.80;;;;;;;22.86;53.73;101552.75;5009048;28;20049;-77
2021/08/30 11:02:57;;;;;;;13.25;10.40;;;;;;;22.84;53.71;101546.50;5009265;28;20050;-77
2021/08/30 11:05:26;;;;;;;13.27;10.70;;;;;;;22.85;54.13;101546.34;5002005;28;20049;-76
2021/08/30 11:07:53;;;;;;;13.85;10.25;;;;;;;22.85;53.72;101549.13;5007956;28;20081;-75
2021/08/30 11:10:23;;;;;;;12.57;9.75;;;;;;;22.86;53.48;101559.16;5008101;28;20046;-76
2021/08/30 11:12:57;;;;;;;12.45;9.70;;;;;;;22.87;53.51;101543.44;5006174;28;20048;-76
2021/08/30 11:15:31;;;;;;;12.65;9.70;;;;;;;22.89;53.45;101550.53;5009866;28;20053;-76
2021/08/30 11:17:59;;;;;;;11.85;9.98;;;;;;;22.88;53.50;101551.56;5004663;28;20545;-77
2021/08/30 11:20:26;;;;;;;14.32;10.13;;;;;;;22.88;53.90;101551.56;5018704;28;20088;-77
2021/08/30 11:22:55;;;;;;;10.93;8.68;;;;;;;22.91;53.45;101551.22;5015115;28;20069;-77
2021/08/30 11:29:03;;;;;;;10.53;8.80;;;;;;;22.92;53.88;101550.19;4999676;28;20052;-77
2021/08/30 11:31:33;;;;;;;11.88;9.15;;;;;;;22.94;53.55;101542.59;5008237;28;20445;-77
2021/08/30 11:34:01;;;;;;;11.85;9.50;;;;;;;22.97;53.95;101555.25;5010554;28;20056;-78